sensor_id;sensor_type;location;lat;lon;timestamp;temperature;humidity
32470;DHT22;18925;48.356;10.864;2022-07-01T00:00:06;19.40;99.90
32470;DHT22;18925;48.356;10.864;2022-07-01T00:00:38;19.40;99.90
32470;DHT22;18925;48.356;10.864;2022-07-01T00:01:08;19.40;99.90
32470;DHT22;18925;48.356;10.864;2022-07-01T00:01:39;19.40;99.90
32470;DHT22;18925;48.356;10.864;2022-07-01T00:02:12;19.40;99.90
32470;DHT22;18925;48.356;10.864;2022-07-01T00:02:44;19.40;99.90
32470;DHT22;18925;48.356;10.864;2022-07-01T00:03:14;19.40;99.90
32470;DHT22;18925;48.356;10.864;2022-07-01T00:03:45;19.30;99.90
32470;DHT22;18925;48.356;10.864;2022-07-01T00:04:21;19.30;99.90
32470;DHT22;18925;48.356;10.864;2022-07-01T00:04:55;19.30;99.90
32470;DHT22;18925;48.356;10.864;2022-07-01T00:05:26;19.30;99.90
32470;DHT22;18925;48.356;10.864;2022-07-01T00:05:57;19.30;99.90
32470;DHT22;18925;48.356;10.864;2022-07-01T00:06:28;19.30;99.90
32470;DHT22;18925;48.356;10.864;2022-07-01T00:06:58;19.20;99.90
32470;DHT22;18925;48.356;10.864;2022-07-01T00:07:29;19.30;99.90
32470;DHT22;18925;48.356;10.864;2022-07-01T00:08:00;19.20;99.90
32470;DHT22;18925;48.356;10.864;2022-07-01T00:08:30;19.20;99.90
32470;DHT22;18925;48.356;10.864;2022-07-01T00:09:01;19.20;99.90
32470;DHT22;18925;48.356;10.864;2022-07-01T00:09:32;19.10;99.90
32470;DHT22;18925;48.356;10.864;2022-07-01T00:10:06;19.10;99.90
32470;DHT22;18925;48.356;10.864;2022-07-01T00:10:37;19.10;99.90
32470;DHT22;18925;48.356;10.864;2022-07-01T00:11:08;19.10;99.90
32470;DHT22;18925;48.356;10.864;2022-07-01T00:11:38;19.10;99.90
32470;DHT22;18925;48.356;10.864;2022-07-01T00:12:09;19.10;99.90
32470;DHT22;18925;48.356;10.864;2022-07-01T00:12:40;19.10;99.90
32470;DHT22;18925;48.356;10.864;2022-07-01T00:13:11;19.00;99.90
32470;DHT22;18925;48.356;10.864;2022-07-01T00:13:41;19.00;99.90
32470;DHT22;18925;48.356;10.864;2022-07-01T00:14:12;19.00;99.90
32470;DHT22;18925;48.356;10.864;2022-07-01T00:14:43;19.00;99.90
32470;DHT22;18925;48.356;10.864;2022-07-01T00:15:14;19.00;99.90
32470;DHT22;18925;48.356;10.864;2022-07-01T00:15:45;19.00;99.90
32470;DHT22;18925;48.356;10.864;2022-07-01T00:16:16;19.00;99.90
32470;DHT22;18925;48.356;10.864;2022-07-01T00:16:46;19.00;99.90
32470;DHT22;18925;48.356;10.864;2022-07-01T00:17:17;18.90;99.90
32470;DHT22;18925;48.356;10.864;2022-07-01T00:17:48;18.90;99.90
32470;DHT22;18925;48.356;10.864;2022-07-01T00:18:18;18.90;99.90
32470;DHT22;18925;48.356;10.864;2022-07-01T00:18:51;18.90;99.90
32470;DHT22;18925;48.356;10.864;2022-07-01T00:19:22;18.90;99.90
32470;DHT22;18925;48.356;10.864;2022-07-01T00:19:52;18.90;99.90
32470;DHT22;18925;48.356;10.864;2022-07-01T00:20:23;18.90;99.90
32470;DHT22;18925;48.356;10.864;2022-07-01T00:20:54;18.90;99.90
32470;DHT22;18925;48.356;10.864;2022-07-01T00:21:24;18.90;99.90
32470;DHT22;18925;48.356;10.864;2022-07-01T00:21:55;18.90;99.90
32470;DHT22;18925;48.356;10.864;2022-07-01T00:22:26;18.90;99.90
32470;DHT22;18925;48.356;10.864;2022-07-01T00:22:58;18.90;99.90
32470;DHT22;18925;48.356;10.864;2022-07-01T00:23:29;18.90;99.90
32470;DHT22;18925;48.356;10.864;2022-07-01T00:24:00;18.80;99.90
32470;DHT22;18925;48.356;10.864;2022-07-01T00:24:30;18.80;99.90
32470;DHT22;18925;48.356;10.864;2022-07-01T00:25:01;18.80;99.90
32470;DHT22;18925;48.356;10.864;2022-07-01T00:25:33;18.80;99.90
32470;DHT22;18925;48.356;10.864;2022-07-01T00:26:03;18.80;99.90
32470;DHT22;18925;48.356;10.864;2022-07-01T00:26:34;18.80;99.90
32470;DHT22;18925;48.356;10.864;2022-07-01T00:27:05;18.80;99.90
32470;DHT22;18925;48.356;10.864;2022-07-01T00:27:39;18.80;99.90
32470;DHT22;18925;48.356;10.864;2022-07-01T00:28:10;18.80;99.90
32470;DHT22;18925;48.356;10.864;2022-07-01T00:28:41;18.80;99.90
32470;DHT22;18925;48.356;10.864;2022-07-01T00:29:11;18.80;99.90
32470;DHT22;18925;48.356;10.864;2022-07-01T00:29:42;18.80;99.90
32470;DHT22;18925;48.356;10.864;2022-07-01T00:30:13;18.80;99.90
32470;DHT22;18925;48.356;10.864;2022-07-01T00:30:45;18.70;99.90
32470;DHT22;18925;48.356;10.864;2022-07-01T00:31:16;18.70;99.90
32470;DHT22;18925;48.356;10.864;2022-07-01T00:31:47;18.70;99.90
32470;DHT22;18925;48.356;10.864;2022-07-01T00:32:17;18.70;99.90
32470;DHT22;18925;48.356;10.864;2022-07-01T00:32:48;18.80;99.90
32470;DHT22;18925;48.356;10.864;2022-07-01T00:33:19;18.80;99.90
32470;DHT22;18925;48.356;10.864;2022-07-01T00:33:49;18.80;99.90
32470;DHT22;18925;48.356;10.864;2022-07-01T00:34:20;18.80;99.90
32470;DHT22;18925;48.356;10.864;2022-07-01T00:34:51;18.80;99.90
32470;DHT22;18925;48.356;10.864;2022-07-01T00:35:21;18.80;99.90
32470;DHT22;18925;48.356;10.864;2022-07-01T00:35:52;18.80;99.90
32470;DHT22;18925;48.356;10.864;2022-07-01T00:36:23;18.80;99.90
32470;DHT22;18925;48.356;10.864;2022-07-01T00:36:54;18.80;99.90
32470;DHT22;18925;48.356;10.864;2022-07-01T00:37:25;18.80;99.90
32470;DHT22;18925;48.356;10.864;2022-07-01T00:37:56;18.80;99.90
32470;DHT22;18925;48.356;10.864;2022-07-01T00:38:27;18.80;99.90
32470;DHT22;18925;48.356;10.864;2022-07-01T00:38:58;18.80;99.90
32470;DHT22;18925;48.356;10.864;2022-07-01T00:39:29;18.80;99.90
32470;DHT22;18925;48.356;10.864;2022-07-01T00:40:05;18.80;99.90
32470;DHT22;18925;48.356;10.864;2022-07-01T00:40:35;18.80;99.90
32470;DHT22;18925;48.356;10.864;2022-07-01T00:41:06;18.80;99.90
32470;DHT22;18925;48.356;10.864;2022-07-01T00:41:37;18.80;99.90
32470;DHT22;18925;48.356;10.864;2022-07-01T00:42:07;18.80;99.90
32470;DHT22;18925;48.356;10.864;2022-07-01T00:42:39;18.80;99.90
32470;DHT22;18925;48.356;10.864;2022-07-01T00:43:11;18.80;99.90
32470;DHT22;18925;48.356;10.864;2022-07-01T00:43:41;18.80;99.90
32470;DHT22;18925;48.356;10.864;2022-07-01T00:44:19;18.80;99.90
32470;DHT22;18925;48.356;10.864;2022-07-01T00:44:49;18.80;99.90
32470;DHT22;18925;48.356;10.864;2022-07-01T00:45:20;18.70;99.90
32470;DHT22;18925;48.356;10.864;2022-07-01T00:45:52;18.70;99.90
32470;DHT22;18925;48.356;10.864;2022-07-01T00:46:24;18.70;99.90
32470;DHT22;18925;48.356;10.864;2022-07-01T00:46:56;18.70;99.90
32470;DHT22;18925;48.356;10.864;2022-07-01T00:47:28;18.70;99.90
32470;DHT22;18925;48.356;10.864;2022-07-01T00:47:59;18.70;99.90
32470;DHT22;18925;48.356;10.864;2022-07-01T00:48:34;18.70;99.90
32470;DHT22;18925;48.356;10.864;2022-07-01T00:49:06;18.70;99.90
32470;DHT22;18925;48.356;10.864;2022-07-01T00:49:38;18.70;99.90
32470;DHT22;18925;48.356;10.864;2022-07-01T00:50:11;18.70;99.90
32470;DHT22;18925;48.356;10.864;2022-07-01T00:50:43;18.70;99.90
32470;DHT22;18925;48.356;10.864;2022-07-01T00:51:13;18.70;99.90
32470;DHT22;18925;48.356;10.864;2022-07-01T00:51:44;18.70;99.90
32470;DHT22;18925;48.356;10.864;2022-07-01T00:52:15;18.70;99.90
32470;DHT22;18925;48.356;10.864;2022-07-01T00:52:46;18.70;99.90
32470;DHT22;18925;48.356;10.864;2022-07-01T00:53:16;18.70;99.90
32470;DHT22;18925;48.356;10.864;2022-07-01T00:53:47;18.70;99.90
32470;DHT22;18925;48.356;10.864;2022-07-01T00:54:19;18.70;99.90
32470;DHT22;18925;48.356;10.864;2022-07-01T00:54:51;18.70;99.90
32470;DHT22;18925;48.356;10.864;2022-07-01T00:55:23;18.70;99.90
32470;DHT22;18925;48.356;10.864;2022-07-01T00:55:53;18.70;99.90
32470;DHT22;18925;48.356;10.864;2022-07-01T00:56:24;18.70;99.90
32470;DHT22;18925;48.356;10.864;2022-07-01T00:56:56;18.70;99.90
32470;DHT22;18925;48.356;10.864;2022-07-01T00:57:30;18.70;99.90
32470;DHT22;18925;48.356;10.864;2022-07-01T00:58:01;18.60;99.90
32470;DHT22;18925;48.356;10.864;2022-07-01T00:58:32;18.60;99.90
32470;DHT22;18925;48.356;10.864;2022-07-01T00:59:02;18.60;99.90
32470;DHT22;18925;48.356;10.864;2022-07-01T00:59:33;18.60;99.90
32470;DHT22;18925;48.356;10.864;2022-07-01T01:00:40;18.50;99.90
32470;DHT22;18925;48.356;10.864;2022-07-01T01:01:10;18.50;99.90
32470;DHT22;18925;48.356;10.864;2022-07-01T01:01:41;18.40;99.90
32470;DHT22;18925;48.356;10.864;2022-07-01T01:02:12;18.40;99.90
32470;DHT22;18925;48.356;10.864;2022-07-01T01:02:42;18.40;99.90
32470;DHT22;18925;48.356;10.864;2022-07-01T01:03:13;18.40;99.90
32470;DHT22;18925;48.356;10.864;2022-07-01T01:03:44;18.30;99.90
32470;DHT22;18925;48.356;10.864;2022-07-01T01:04:15;18.30;99.90
32470;DHT22;18925;48.356;10.864;2022-07-01T01:04:46;18.30;99.90
32470;DHT22;18925;48.356;10.864;2022-07-01T01:05:17;18.30;99.90
32470;DHT22;18925;48.356;10.864;2022-07-01T01:05:49;18.30;99.90
32470;DHT22;18925;48.356;10.864;2022-07-01T01:06:20;18.30;99.90
32470;DHT22;18925;48.356;10.864;2022-07-01T01:06:51;18.20;99.90
32470;DHT22;18925;48.356;10.864;2022-07-01T01:07:22;18.20;99.90
32470;DHT22;18925;48.356;10.864;2022-07-01T01:07:52;18.20;99.90
32470;DHT22;18925;48.356;10.864;2022-07-01T01:08:24;18.20;99.90
32470;DHT22;18925;48.356;10.864;2022-07-01T01:08:56;18.20;99.90
32470;DHT22;18925;48.356;10.864;2022-07-01T01:09:28;18.20;99.90
32470;DHT22;18925;48.356;10.864;2022-07-01T01:10:00;18.10;99.90
32470;DHT22;18925;48.356;10.864;2022-07-01T01:10:32;18.10;99.90
32470;DHT22;18925;48.356;10.864;2022-07-01T01:11:04;18.10;99.90
32470;DHT22;18925;48.356;10.864;2022-07-01T01:11:35;18.10;99.90
32470;DHT22;18925;48.356;10.864;2022-07-01T01:12:06;18.10;99.90
32470;DHT22;18925;48.356;10.864;2022-07-01T01:12:36;18.00;99.90
32470;DHT22;18925;48.356;10.864;2022-07-01T01:13:08;18.00;99.90
32470;DHT22;18925;48.356;10.864;2022-07-01T01:13:39;18.00;99.90
32470;DHT22;18925;48.356;10.864;2022-07-01T01:14:10;17.90;99.90
32470;DHT22;18925;48.356;10.864;2022-07-01T01:14:48;17.90;99.90
32470;DHT22;18925;48.356;10.864;2022-07-01T01:15:19;17.80;99.90
32470;DHT22;18925;48.356;10.864;2022-07-01T01:15:50;17.80;99.90
32470;DHT22;18925;48.356;10.864;2022-07-01T01:16:22;17.80;99.90
32470;DHT22;18925;48.356;10.864;2022-07-01T01:16:53;17.70;99.90
32470;DHT22;18925;48.356;10.864;2022-07-01T01:17:24;17.70;99.90
32470;DHT22;18925;48.356;10.864;2022-07-01T01:17:55;17.70;99.90
32470;DHT22;18925;48.356;10.864;2022-07-01T01:18:26;17.60;99.90
32470;DHT22;18925;48.356;10.864;2022-07-01T01:18:56;17.60;99.90
32470;DHT22;18925;48.356;10.864;2022-07-01T01:19:27;17.50;99.90
32470;DHT22;18925;48.356;10.864;2022-07-01T01:19:58;17.50;99.90
32470;DHT22;18925;48.356;10.864;2022-07-01T01:20:37;17.40;99.90
32470;DHT22;18925;48.356;10.864;2022-07-01T01:21:08;17.40;99.90
32470;DHT22;18925;48.356;10.864;2022-07-01T01:21:39;17.40;99.90
32470;DHT22;18925;48.356;10.864;2022-07-01T01:22:10;17.40;99.90
32470;DHT22;18925;48.356;10.864;2022-07-01T01:22:43;17.40;99.90
32470;DHT22;18925;48.356;10.864;2022-07-01T01:23:14;17.30;99.90
32470;DHT22;18925;48.356;10.864;2022-07-01T01:23:45;17.30;99.90
32470;DHT22;18925;48.356;10.864;2022-07-01T01:24:16;17.30;99.90
32470;DHT22;18925;48.356;10.864;2022-07-01T01:24:46;17.30;99.90
32470;DHT22;18925;48.356;10.864;2022-07-01T01:25:20;17.30;99.90
32470;DHT22;18925;48.356;10.864;2022-07-01T01:25:51;17.20;99.90
32470;DHT22;18925;48.356;10.864;2022-07-01T01:26:22;17.20;99.90
32470;DHT22;18925;48.356;10.864;2022-07-01T01:26:54;17.20;99.90
32470;DHT22;18925;48.356;10.864;2022-07-01T01:27:25;17.20;99.90
32470;DHT22;18925;48.356;10.864;2022-07-01T01:27:55;17.20;99.90
32470;DHT22;18925;48.356;10.864;2022-07-01T01:28:26;17.20;99.90
32470;DHT22;18925;48.356;10.864;2022-07-01T01:28:57;17.10;99.90
32470;DHT22;18925;48.356;10.864;2022-07-01T01:29:28;17.10;99.90
32470;DHT22;18925;48.356;10.864;2022-07-01T01:29:59;17.10;99.90
32470;DHT22;18925;48.356;10.864;2022-07-01T01:30:29;17.10;99.90
32470;DHT22;18925;48.356;10.864;2022-07-01T01:31:00;17.20;99.90
32470;DHT22;18925;48.356;10.864;2022-07-01T01:31:31;17.20;99.90
32470;DHT22;18925;48.356;10.864;2022-07-01T01:32:07;17.30;99.90
32470;DHT22;18925;48.356;10.864;2022-07-01T01:32:38;17.20;99.90
32470;DHT22;18925;48.356;10.864;2022-07-01T01:33:10;17.20;99.90
32470;DHT22;18925;48.356;10.864;2022-07-01T01:33:42;17.20;99.90
32470;DHT22;18925;48.356;10.864;2022-07-01T01:34:13;17.20;99.90
32470;DHT22;18925;48.356;10.864;2022-07-01T01:34:43;17.20;99.90
32470;DHT22;18925;48.356;10.864;2022-07-01T01:35:14;17.30;99.90
32470;DHT22;18925;48.356;10.864;2022-07-01T01:35:44;17.30;99.90
32470;DHT22;18925;48.356;10.864;2022-07-01T01:36:15;17.30;99.90
32470;DHT22;18925;48.356;10.864;2022-07-01T01:36:46;17.40;99.90
32470;DHT22;18925;48.356;10.864;2022-07-01T01:37:16;17.30;99.90
32470;DHT22;18925;48.356;10.864;2022-07-01T01:37:48;17.30;99.90
32470;DHT22;18925;48.356;10.864;2022-07-01T01:38:19;17.30;99.90
32470;DHT22;18925;48.356;10.864;2022-07-01T01:38:50;17.30;99.90
32470;DHT22;18925;48.356;10.864;2022-07-01T01:39:20;17.30;99.90
32470;DHT22;18925;48.356;10.864;2022-07-01T01:39:51;17.30;99.90
32470;DHT22;18925;48.356;10.864;2022-07-01T01:40:22;17.30;99.90
32470;DHT22;18925;48.356;10.864;2022-07-01T01:40:52;17.30;99.90
32470;DHT22;18925;48.356;10.864;2022-07-01T01:41:23;17.30;99.90
32470;DHT22;18925;48.356;10.864;2022-07-01T01:41:53;17.30;99.90
32470;DHT22;18925;48.356;10.864;2022-07-01T01:42:24;17.30;99.90
32470;DHT22;18925;48.356;10.864;2022-07-01T01:42:55;17.30;99.90
32470;DHT22;18925;48.356;10.864;2022-07-01T01:43:25;17.30;99.90
32470;DHT22;18925;48.356;10.864;2022-07-01T01:43:56;17.30;99.90
32470;DHT22;18925;48.356;10.864;2022-07-01T01:44:26;17.30;99.90
32470;DHT22;18925;48.356;10.864;2022-07-01T01:44:57;17.30;99.90
32470;DHT22;18925;48.356;10.864;2022-07-01T01:45:28;17.30;99.90
32470;DHT22;18925;48.356;10.864;2022-07-01T01:45:58;17.30;99.90
32470;DHT22;18925;48.356;10.864;2022-07-01T01:46:32;17.30;99.90
32470;DHT22;18925;48.356;10.864;2022-07-01T01:47:03;17.30;99.90
32470;DHT22;18925;48.356;10.864;2022-07-01T01:47:33;17.40;99.90
32470;DHT22;18925;48.356;10.864;2022-07-01T01:48:04;17.40;99.90
32470;DHT22;18925;48.356;10.864;2022-07-01T01:48:35;17.40;99.90
32470;DHT22;18925;48.356;10.864;2022-07-01T01:49:06;17.40;99.90
32470;DHT22;18925;48.356;10.864;2022-07-01T01:49:37;17.40;99.90
32470;DHT22;18925;48.356;10.864;2022-07-01T01:50:09;17.40;99.90
32470;DHT22;18925;48.356;10.864;2022-07-01T01:50:40;17.40;99.90
32470;DHT22;18925;48.356;10.864;2022-07-01T01:51:11;17.40;99.90
32470;DHT22;18925;48.356;10.864;2022-07-01T01:51:41;17.40;99.90
32470;DHT22;18925;48.356;10.864;2022-07-01T01:52:12;17.40;99.90
32470;DHT22;18925;48.356;10.864;2022-07-01T01:52:43;17.40;99.90
32470;DHT22;18925;48.356;10.864;2022-07-01T01:53:13;17.40;99.90
32470;DHT22;18925;48.356;10.864;2022-07-01T01:53:44;17.40;99.90
32470;DHT22;18925;48.356;10.864;2022-07-01T01:54:15;17.40;99.90
32470;DHT22;18925;48.356;10.864;2022-07-01T01:54:45;17.40;99.90
32470;DHT22;18925;48.356;10.864;2022-07-01T01:55:17;17.40;99.90
32470;DHT22;18925;48.356;10.864;2022-07-01T01:55:47;17.40;99.90
32470;DHT22;18925;48.356;10.864;2022-07-01T01:56:18;17.40;99.90
32470;DHT22;18925;48.356;10.864;2022-07-01T01:56:48;17.40;99.90
32470;DHT22;18925;48.356;10.864;2022-07-01T01:57:19;17.40;99.90
32470;DHT22;18925;48.356;10.864;2022-07-01T01:57:50;17.30;99.90
32470;DHT22;18925;48.356;10.864;2022-07-01T01:58:20;17.30;99.90
32470;DHT22;18925;48.356;10.864;2022-07-01T01:58:51;17.30;99.90
32470;DHT22;18925;48.356;10.864;2022-07-01T01:59:22;17.40;99.90
32470;DHT22;18925;48.356;10.864;2022-07-01T01:59:52;17.40;99.90
32470;DHT22;18925;48.356;10.864;2022-07-01T02:00:23;17.30;99.90
32470;DHT22;18925;48.356;10.864;2022-07-01T02:00:54;17.40;99.90
32470;DHT22;18925;48.356;10.864;2022-07-01T02:01:25;17.40;99.90
32470;DHT22;18925;48.356;10.864;2022-07-01T02:01:56;17.40;99.90
32470;DHT22;18925;48.356;10.864;2022-07-01T02:02:27;17.40;99.90
32470;DHT22;18925;48.356;10.864;2022-07-01T02:02:57;17.40;99.90
32470;DHT22;18925;48.356;10.864;2022-07-01T02:03:29;17.40;99.90
32470;DHT22;18925;48.356;10.864;2022-07-01T02:03:59;17.40;99.90
32470;DHT22;18925;48.356;10.864;2022-07-01T02:04:30;17.40;99.90
32470;DHT22;18925;48.356;10.864;2022-07-01T02:05:01;17.40;99.90
32470;DHT22;18925;48.356;10.864;2022-07-01T02:05:31;17.40;99.90
32470;DHT22;18925;48.356;10.864;2022-07-01T02:06:03;17.40;99.90
32470;DHT22;18925;48.356;10.864;2022-07-01T02:06:34;17.30;99.90
32470;DHT22;18925;48.356;10.864;2022-07-01T02:07:04;17.40;99.90
32470;DHT22;18925;48.356;10.864;2022-07-01T02:07:35;17.40;99.90
32470;DHT22;18925;48.356;10.864;2022-07-01T02:08:06;17.40;99.90
32470;DHT22;18925;48.356;10.864;2022-07-01T02:08:37;17.40;99.90
32470;DHT22;18925;48.356;10.864;2022-07-01T02:09:08;17.40;99.90
32470;DHT22;18925;48.356;10.864;2022-07-01T02:09:42;17.40;99.90
32470;DHT22;18925;48.356;10.864;2022-07-01T02:10:12;17.40;99.90
32470;DHT22;18925;48.356;10.864;2022-07-01T02:10:43;17.40;99.90
32470;DHT22;18925;48.356;10.864;2022-07-01T02:11:14;17.50;99.90
32470;DHT22;18925;48.356;10.864;2022-07-01T02:11:44;17.40;99.90
32470;DHT22;18925;48.356;10.864;2022-07-01T02:12:15;17.50;99.90
32470;DHT22;18925;48.356;10.864;2022-07-01T02:12:46;17.40;99.90
32470;DHT22;18925;48.356;10.864;2022-07-01T02:13:17;17.40;99.90
32470;DHT22;18925;48.356;10.864;2022-07-01T02:13:48;17.50;99.90
32470;DHT22;18925;48.356;10.864;2022-07-01T02:14:18;17.50;99.90
32470;DHT22;18925;48.356;10.864;2022-07-01T02:14:49;17.50;99.90
32470;DHT22;18925;48.356;10.864;2022-07-01T02:15:20;17.50;99.90
32470;DHT22;18925;48.356;10.864;2022-07-01T02:15:51;17.50;99.90
32470;DHT22;18925;48.356;10.864;2022-07-01T02:16:21;17.50;99.90
32470;DHT22;18925;48.356;10.864;2022-07-01T02:16:52;17.40;99.90
32470;DHT22;18925;48.356;10.864;2022-07-01T02:17:23;17.50;99.90
32470;DHT22;18925;48.356;10.864;2022-07-01T02:17:55;17.50;99.90
32470;DHT22;18925;48.356;10.864;2022-07-01T02:18:26;17.50;99.90
32470;DHT22;18925;48.356;10.864;2022-07-01T02:18:58;17.50;99.90
32470;DHT22;18925;48.356;10.864;2022-07-01T02:19:29;17.50;99.90
32470;DHT22;18925;48.356;10.864;2022-07-01T02:19:59;17.50;99.90
32470;DHT22;18925;48.356;10.864;2022-07-01T02:20:30;17.60;99.90
32470;DHT22;18925;48.356;10.864;2022-07-01T02:21:00;17.60;99.90
32470;DHT22;18925;48.356;10.864;2022-07-01T02:21:31;17.60;99.90
32470;DHT22;18925;48.356;10.864;2022-07-01T02:22:02;17.60;99.90
32470;DHT22;18925;48.356;10.864;2022-07-01T02:22:32;17.60;99.90
32470;DHT22;18925;48.356;10.864;2022-07-01T02:23:03;17.50;99.90
32470;DHT22;18925;48.356;10.864;2022-07-01T02:23:34;17.60;99.90
32470;DHT22;18925;48.356;10.864;2022-07-01T02:24:04;17.60;99.90
32470;DHT22;18925;48.356;10.864;2022-07-01T02:24:35;17.60;99.90
32470;DHT22;18925;48.356;10.864;2022-07-01T02:25:06;17.60;99.90
32470;DHT22;18925;48.356;10.864;2022-07-01T02:25:37;17.60;99.90
32470;DHT22;18925;48.356;10.864;2022-07-01T02:26:08;17.60;99.90
32470;DHT22;18925;48.356;10.864;2022-07-01T02:26:38;17.60;99.90
32470;DHT22;18925;48.356;10.864;2022-07-01T02:27:09;17.60;99.90
32470;DHT22;18925;48.356;10.864;2022-07-01T02:27:40;17.50;99.90
32470;DHT22;18925;48.356;10.864;2022-07-01T02:28:11;17.50;99.90
32470;DHT22;18925;48.356;10.864;2022-07-01T02:28:41;17.60;99.90
32470;DHT22;18925;48.356;10.864;2022-07-01T02:29:12;17.60;99.90
32470;DHT22;18925;48.356;10.864;2022-07-01T02:29:43;17.50;99.90
32470;DHT22;18925;48.356;10.864;2022-07-01T02:30:14;17.60;99.90
32470;DHT22;18925;48.356;10.864;2022-07-01T02:30:45;17.60;99.90
32470;DHT22;18925;48.356;10.864;2022-07-01T02:31:15;17.50;99.90
32470;DHT22;18925;48.356;10.864;2022-07-01T02:31:46;17.50;99.90
32470;DHT22;18925;48.356;10.864;2022-07-01T02:32:16;17.50;99.90
32470;DHT22;18925;48.356;10.864;2022-07-01T02:32:47;17.50;99.90
32470;DHT22;18925;48.356;10.864;2022-07-01T02:33:18;17.60;99.90
32470;DHT22;18925;48.356;10.864;2022-07-01T02:33:48;17.60;99.90
32470;DHT22;18925;48.356;10.864;2022-07-01T02:34:19;17.60;99.90
32470;DHT22;18925;48.356;10.864;2022-07-01T02:34:50;17.60;99.90
32470;DHT22;18925;48.356;10.864;2022-07-01T02:35:21;17.60;99.90
32470;DHT22;18925;48.356;10.864;2022-07-01T02:35:52;17.60;99.90
32470;DHT22;18925;48.356;10.864;2022-07-01T02:36:23;17.60;99.90
32470;DHT22;18925;48.356;10.864;2022-07-01T02:36:53;17.60;99.90
32470;DHT22;18925;48.356;10.864;2022-07-01T02:37:26;17.60;99.90
32470;DHT22;18925;48.356;10.864;2022-07-01T02:37:57;17.60;99.90
32470;DHT22;18925;48.356;10.864;2022-07-01T02:38:27;17.60;99.90
32470;DHT22;18925;48.356;10.864;2022-07-01T02:38:58;17.60;99.90
32470;DHT22;18925;48.356;10.864;2022-07-01T02:39:29;17.60;99.90
32470;DHT22;18925;48.356;10.864;2022-07-01T02:39:59;17.60;99.90
32470;DHT22;18925;48.356;10.864;2022-07-01T02:40:30;17.50;99.90
32470;DHT22;18925;48.356;10.864;2022-07-01T02:41:01;17.50;99.90
32470;DHT22;18925;48.356;10.864;2022-07-01T02:41:31;17.40;99.90
32470;DHT22;18925;48.356;10.864;2022-07-01T02:42:02;17.50;99.90
32470;DHT22;18925;48.356;10.864;2022-07-01T02:42:51;17.40;99.90
32470;DHT22;18925;48.356;10.864;2022-07-01T02:43:22;17.40;99.90
32470;DHT22;18925;48.356;10.864;2022-07-01T02:43:52;17.40;99.90
32470;DHT22;18925;48.356;10.864;2022-07-01T02:44:23;17.40;99.90
32470;DHT22;18925;48.356;10.864;2022-07-01T02:44:54;17.40;99.90
32470;DHT22;18925;48.356;10.864;2022-07-01T02:45:25;17.40;99.90
32470;DHT22;18925;48.356;10.864;2022-07-01T02:45:58;17.40;99.90
32470;DHT22;18925;48.356;10.864;2022-07-01T02:46:29;17.40;99.90
32470;DHT22;18925;48.356;10.864;2022-07-01T02:47:00;17.40;99.90
32470;DHT22;18925;48.356;10.864;2022-07-01T02:47:34;17.40;99.90
32470;DHT22;18925;48.356;10.864;2022-07-01T02:48:05;17.40;99.90
32470;DHT22;18925;48.356;10.864;2022-07-01T02:48:36;17.40;99.90
32470;DHT22;18925;48.356;10.864;2022-07-01T02:49:07;17.40;99.90
32470;DHT22;18925;48.356;10.864;2022-07-01T02:49:37;17.50;99.90
32470;DHT22;18925;48.356;10.864;2022-07-01T02:50:11;17.50;99.90
32470;DHT22;18925;48.356;10.864;2022-07-01T02:50:41;17.50;99.90
32470;DHT22;18925;48.356;10.864;2022-07-01T02:51:12;17.50;99.90
32470;DHT22;18925;48.356;10.864;2022-07-01T02:51:42;17.50;99.90
32470;DHT22;18925;48.356;10.864;2022-07-01T02:52:13;17.40;99.90
32470;DHT22;18925;48.356;10.864;2022-07-01T02:52:46;17.50;99.90
32470;DHT22;18925;48.356;10.864;2022-07-01T02:53:16;17.40;99.90
32470;DHT22;18925;48.356;10.864;2022-07-01T02:53:47;17.40;99.90
32470;DHT22;18925;48.356;10.864;2022-07-01T02:54:17;17.40;99.90
32470;DHT22;18925;48.356;10.864;2022-07-01T02:54:48;17.40;99.90
32470;DHT22;18925;48.356;10.864;2022-07-01T02:55:19;17.50;99.90
32470;DHT22;18925;48.356;10.864;2022-07-01T02:55:49;17.40;99.90
32470;DHT22;18925;48.356;10.864;2022-07-01T02:56:20;17.40;99.90
32470;DHT22;18925;48.356;10.864;2022-07-01T02:56:51;17.40;99.90
32470;DHT22;18925;48.356;10.864;2022-07-01T02:57:22;17.40;99.90
32470;DHT22;18925;48.356;10.864;2022-07-01T02:57:53;17.40;99.90
32470;DHT22;18925;48.356;10.864;2022-07-01T02:58:24;17.50;99.90
32470;DHT22;18925;48.356;10.864;2022-07-01T02:58:55;17.40;99.90
32470;DHT22;18925;48.356;10.864;2022-07-01T02:59:26;17.40;99.90
32470;DHT22;18925;48.356;10.864;2022-07-01T02:59:57;17.40;99.90
32470;DHT22;18925;48.356;10.864;2022-07-01T03:00:27;17.40;99.90
32470;DHT22;18925;48.356;10.864;2022-07-01T03:00:58;17.40;99.90
32470;DHT22;18925;48.356;10.864;2022-07-01T03:01:29;17.40;99.90
32470;DHT22;18925;48.356;10.864;2022-07-01T03:01:59;17.40;99.90
32470;DHT22;18925;48.356;10.864;2022-07-01T03:02:30;17.30;99.90
32470;DHT22;18925;48.356;10.864;2022-07-01T03:03:00;17.30;99.90
32470;DHT22;18925;48.356;10.864;2022-07-01T03:03:31;17.30;99.90
32470;DHT22;18925;48.356;10.864;2022-07-01T03:04:02;17.30;99.90
32470;DHT22;18925;48.356;10.864;2022-07-01T03:04:32;17.20;99.90
32470;DHT22;18925;48.356;10.864;2022-07-01T03:05:04;17.20;99.90
32470;DHT22;18925;48.356;10.864;2022-07-01T03:05:35;17.20;99.90
32470;DHT22;18925;48.356;10.864;2022-07-01T03:06:05;17.20;99.90
32470;DHT22;18925;48.356;10.864;2022-07-01T03:06:36;17.20;99.90
32470;DHT22;18925;48.356;10.864;2022-07-01T03:07:06;17.20;99.90
32470;DHT22;18925;48.356;10.864;2022-07-01T03:07:38;17.10;99.90
32470;DHT22;18925;48.356;10.864;2022-07-01T03:08:09;17.10;99.90
32470;DHT22;18925;48.356;10.864;2022-07-01T03:08:39;17.10;99.90
32470;DHT22;18925;48.356;10.864;2022-07-01T03:09:10;17.10;99.90
32470;DHT22;18925;48.356;10.864;2022-07-01T03:09:41;17.10;99.90
32470;DHT22;18925;48.356;10.864;2022-07-01T03:10:13;17.10;99.90
32470;DHT22;18925;48.356;10.864;2022-07-01T03:10:44;17.10;99.90
32470;DHT22;18925;48.356;10.864;2022-07-01T03:11:14;17.10;99.90
32470;DHT22;18925;48.356;10.864;2022-07-01T03:11:45;17.10;99.90
32470;DHT22;18925;48.356;10.864;2022-07-01T03:12:16;17.10;99.90
32470;DHT22;18925;48.356;10.864;2022-07-01T03:12:55;17.10;99.90
32470;DHT22;18925;48.356;10.864;2022-07-01T03:13:28;17.00;99.90
32470;DHT22;18925;48.356;10.864;2022-07-01T03:13:59;17.10;99.90